createdAt,value
2024-04-01T00:02:18.031Z,11.70
2024-04-01T00:04:45.955Z,11.70
2024-04-01T00:07:14.096Z,11.70
2024-04-01T00:09:42.086Z,11.64
2024-04-01T00:12:09.927Z,11.60
2024-04-01T00:14:37.603Z,11.60
2024-04-01T00:17:06.644Z,11.50
2024-04-01T00:19:35.105Z,11.50
2024-04-01T00:22:05.065Z,11.50
2024-04-01T00:24:32.900Z,11.40
2024-04-01T00:27:01.057Z,11.40
2024-04-01T00:29:28.944Z,11.32
2024-04-01T00:31:56.833Z,11.30
2024-04-01T00:34:32.992Z,11.24
2024-04-01T00:37:01.637Z,11.20
2024-04-01T00:39:29.380Z,11.20
2024-04-01T00:41:57.182Z,11.20
2024-04-01T00:44:24.868Z,11.20
2024-04-01T00:46:53.210Z,11.10
2024-04-01T00:49:22.546Z,11.10
2024-04-01T00:51:51.383Z,11.10
2024-04-01T00:54:19.351Z,11.04
2024-04-01T00:56:49.601Z,11.00
2024-04-01T00:59:20.107Z,10.90
2024-04-01T01:01:48.291Z,10.90
2024-04-01T01:04:16.373Z,10.86
2024-04-01T01:06:47.728Z,10.80
2024-04-01T01:09:15.569Z,10.80
2024-04-01T01:11:43.501Z,10.78
2024-04-01T01:14:11.412Z,10.78
2024-04-01T01:16:39.602Z,10.78
2024-04-01T01:19:09.851Z,10.70
2024-04-01T01:21:37.670Z,10.70
2024-04-01T01:24:05.682Z,10.80
2024-04-01T01:26:33.490Z,10.76
2024-04-01T01:29:03.400Z,10.70
2024-04-01T01:31:31.760Z,10.70
2024-04-01T01:33:59.683Z,10.70
2024-04-01T01:36:29.338Z,10.70
2024-04-01T01:38:58.399Z,10.70
2024-04-01T01:41:26.523Z,10.60
2024-04-01T01:43:54.260Z,10.52
2024-04-01T01:46:21.906Z,10.50
2024-04-01T01:48:51.168Z,10.40
2024-04-01T01:51:18.962Z,10.30
2024-04-01T01:53:46.771Z,10.30
2024-04-01T01:56:14.571Z,10.30
2024-04-01T01:58:42.311Z,10.20
2024-04-01T02:01:09.960Z,10.20
2024-04-01T02:03:39.027Z,10.20
2024-04-01T02:06:06.868Z,10.20
2024-04-01T02:08:36.481Z,10.20
2024-04-01T02:11:05.425Z,10.20
2024-04-01T02:13:33.073Z,10.18
2024-04-01T02:16:09.653Z,10.10
2024-04-01T02:18:39.003Z,10.10
2024-04-01T02:21:06.676Z,10.10
2024-04-01T02:23:34.449Z,10.10
2024-04-01T02:26:04.550Z,10.00
2024-04-01T02:28:32.997Z,10.00
2024-04-01T02:31:00.726Z,10.00
2024-04-01T02:33:29.478Z,10.00
2024-04-01T02:35:57.202Z,10.00
2024-04-01T02:38:25.502Z,10.00
2024-04-01T02:40:53.274Z,10.00
2024-04-01T02:43:21.103Z,10.00
2024-04-01T02:45:49.009Z,10.00
2024-04-01T02:48:16.707Z,9.94
2024-04-01T02:50:44.628Z,9.90
2024-04-01T02:53:12.368Z,9.90
2024-04-01T02:55:40.067Z,9.86
2024-04-01T02:58:07.785Z,9.80
2024-04-01T03:00:35.540Z,9.80
2024-04-01T03:03:03.771Z,9.80
2024-04-01T03:05:31.505Z,9.80
2024-04-01T03:07:59.159Z,9.80
2024-04-01T03:10:26.918Z,9.80
2024-04-01T03:12:54.719Z,9.90
2024-04-01T03:15:22.505Z,9.88
2024-04-01T03:17:50.209Z,9.80
2024-04-01T03:20:19.703Z,9.80
2024-04-01T03:22:47.327Z,9.80
2024-04-01T03:25:15.948Z,9.80
2024-04-01T03:27:43.787Z,9.80
2024-04-01T03:30:11.825Z,9.80
2024-04-01T03:32:39.824Z,9.78
2024-04-01T03:35:08.336Z,9.70
2024-04-01T03:37:36.097Z,9.70
2024-04-01T03:40:04.908Z,9.70
2024-04-01T03:42:32.683Z,9.70
2024-04-01T03:45:00.429Z,9.70
2024-04-01T03:47:29.905Z,9.64
2024-04-01T03:49:57.589Z,9.60
2024-04-01T03:52:26.268Z,9.60
2024-04-01T03:54:53.943Z,9.60
2024-04-01T03:57:21.638Z,9.60
2024-04-01T03:59:49.578Z,9.60
2024-04-01T04:02:17.425Z,9.60
2024-04-01T04:04:45.133Z,9.60
2024-04-01T04:07:12.938Z,9.54
2024-04-01T04:09:41.135Z,9.60
2024-04-01T04:12:11.056Z,9.60
2024-04-01T04:14:40.608Z,9.60
2024-04-01T04:17:08.321Z,9.60
2024-04-01T04:19:36.120Z,9.60
2024-04-01T04:22:04.228Z,9.60
2024-04-01T04:24:31.938Z,9.60
2024-04-01T04:26:59.723Z,9.60
2024-04-01T04:29:27.459Z,9.60
2024-04-01T04:31:56.401Z,9.60
2024-04-01T04:34:24.631Z,9.60
2024-04-01T04:36:52.358Z,9.60
2024-04-01T04:39:25.428Z,9.60
2024-04-01T04:41:53.287Z,9.60
2024-04-01T04:44:21.436Z,9.60
2024-04-01T04:46:49.144Z,9.60
2024-04-01T04:49:19.098Z,9.50
2024-04-01T04:51:48.027Z,9.42
2024-04-01T04:54:15.976Z,9.40
2024-04-01T04:56:43.948Z,9.42
2024-04-01T04:59:11.725Z,9.50
2024-04-01T05:01:39.873Z,9.50
2024-04-01T05:04:07.618Z,9.50
2024-04-01T05:06:35.436Z,9.60
2024-04-01T05:09:03.289Z,9.60
2024-04-01T05:11:30.984Z,9.60
2024-04-01T05:14:00.154Z,9.60
2024-04-01T05:16:27.961Z,9.68
2024-04-01T05:18:55.748Z,9.70
2024-04-01T05:21:24.045Z,9.74
2024-04-01T05:23:53.777Z,9.80
2024-04-01T05:26:21.715Z,9.80
2024-04-01T05:28:49.710Z,9.90
2024-04-01T05:31:17.424Z,9.90
2024-04-01T05:33:45.152Z,9.90
2024-04-01T05:36:13.900Z,10.00
2024-04-01T05:38:41.952Z,10.00
2024-04-01T05:41:09.734Z,10.10
2024-04-01T05:43:37.411Z,10.10
2024-04-01T05:46:05.184Z,10.10
2024-04-01T05:48:32.928Z,10.18
2024-04-01T05:51:00.696Z,10.20
2024-04-01T05:53:28.843Z,10.30
2024-04-01T05:55:57.022Z,10.50
2024-04-01T05:58:24.722Z,10.60
2024-04-01T06:00:52.424Z,10.72
2024-04-01T06:03:20.145Z,10.82
2024-04-01T06:05:47.847Z,10.98
2024-04-01T06:08:15.554Z,11.08
2024-04-01T06:10:43.349Z,11.22
2024-04-01T06:13:11.038Z,11.50
2024-04-01T06:15:38.699Z,11.70
2024-04-01T06:18:07.060Z,11.86
2024-04-01T06:20:35.019Z,12.02
2024-04-01T06:23:03.202Z,12.20
2024-04-01T06:25:31.005Z,12.44
2024-04-01T06:27:58.762Z,12.76
2024-04-01T06:30:26.481Z,13.30
2024-04-01T06:32:54.257Z,13.40
2024-04-01T06:35:21.938Z,13.50
2024-04-01T06:37:50.106Z,13.50
2024-04-01T06:40:18.680Z,13.50
2024-04-01T06:42:46.372Z,13.50
2024-04-01T06:45:14.138Z,13.58
2024-04-01T06:47:42.303Z,13.60
2024-04-01T06:50:10.091Z,13.62
2024-04-01T06:52:38.018Z,13.70
2024-04-01T06:55:06.379Z,13.70
2024-04-01T06:57:34.230Z,13.78
2024-04-01T07:00:02.093Z,13.80
2024-04-01T07:02:30.186Z,13.84
2024-04-01T07:04:58.816Z,13.90
2024-04-01T07:07:26.619Z,14.00
2024-04-01T07:09:54.302Z,14.00
2024-04-01T07:12:22.097Z,14.10
2024-04-01T07:14:49.864Z,14.20
2024-04-01T07:17:17.537Z,14.20
2024-04-01T07:19:45.207Z,14.30
2024-04-01T07:22:12.923Z,14.40
2024-04-01T07:24:40.695Z,14.50
2024-04-01T07:27:08.560Z,14.70
2024-04-01T07:29:36.416Z,14.80
2024-04-01T07:32:05.108Z,14.84
2024-04-01T07:34:32.914Z,14.90
2024-04-01T07:37:00.726Z,15.00
2024-04-01T07:39:29.326Z,15.00
2024-04-01T07:41:57.108Z,15.10
2024-04-01T07:44:24.912Z,15.10
2024-04-01T07:46:52.748Z,15.20
2024-04-01T07:49:20.506Z,15.34
2024-04-01T07:51:48.238Z,15.50
2024-04-01T07:54:15.993Z,15.70
2024-04-01T07:56:43.808Z,15.84
2024-04-01T07:59:11.633Z,16.00
2024-04-01T08:01:39.468Z,16.10
2024-04-01T08:04:07.337Z,16.20
2024-04-01T08:06:35.060Z,16.30
2024-04-01T08:09:02.840Z,16.40
2024-04-01T08:11:30.626Z,16.50
2024-04-01T08:13:58.385Z,16.60
2024-04-01T08:16:26.184Z,16.70
2024-04-01T08:18:53.881Z,16.70
2024-04-01T08:21:21.702Z,16.70
2024-04-01T08:23:50.531Z,16.70
2024-04-01T08:26:18.484Z,16.76
2024-04-01T08:28:46.222Z,16.88
2024-04-01T08:31:14.067Z,16.90
2024-04-01T08:33:41.802Z,17.00
2024-04-01T08:36:09.522Z,17.10
2024-04-01T08:38:37.437Z,17.40
2024-04-01T08:41:52.677Z,17.70
2024-04-01T08:44:21.525Z,18.36
2024-04-01T08:46:54.680Z,19.06
2024-04-01T08:50:09.447Z,20.06
2024-04-01T08:53:07.317Z,20.90
2024-04-01T08:55:36.100Z,20.96
2024-04-01T08:58:05.943Z,21.58
2024-04-01T09:00:33.851Z,22.00
2024-04-01T09:03:01.656Z,22.18
2024-04-01T09:05:29.783Z,22.08
2024-04-01T09:07:57.881Z,21.90
2024-04-01T09:10:27.611Z,21.82
2024-04-01T09:12:55.387Z,22.10
2024-04-01T09:15:24.001Z,22.16
2024-04-01T09:17:52.213Z,22.40
2024-04-01T09:20:20.081Z,22.60
2024-04-01T09:22:47.906Z,22.50
2024-04-01T09:25:15.698Z,22.20
2024-04-01T09:27:43.490Z,22.00
2024-04-01T09:30:12.291Z,21.78
2024-04-01T09:32:40.034Z,21.70
2024-04-01T09:35:08.342Z,21.80
2024-04-01T09:37:36.090Z,21.80
2024-04-01T09:40:04.903Z,21.70
2024-04-01T09:42:32.907Z,21.50
2024-04-01T09:45:00.865Z,21.24
2024-04-01T09:47:28.668Z,20.90
2024-04-01T09:49:58.487Z,20.70
2024-04-01T09:52:26.263Z,20.62
2024-04-01T09:55:01.392Z,20.70
2024-04-01T09:57:53.766Z,20.90
2024-04-01T10:00:23.104Z,21.54
2024-04-01T10:03:27.264Z,21.70
2024-04-01T10:06:09.217Z,21.84
2024-04-01T10:09:16.207Z,21.90
2024-04-01T10:12:05.908Z,21.90
2024-04-01T10:14:57.672Z,22.10
2024-04-01T10:17:31.325Z,22.10
2024-04-01T10:20:40.186Z,21.90
2024-04-01T10:23:41.845Z,21.80
2024-04-01T10:26:37.029Z,21.70
2024-04-01T10:29:54.064Z,21.60
2024-04-01T10:33:12.961Z,21.40
2024-04-01T10:36:23.556Z,21.22
2024-04-01T10:39:16.498Z,21.28
2024-04-01T10:42:28.123Z,21.40
2024-04-01T10:45:46.910Z,21.60
2024-04-01T10:48:28.704Z,21.60
2024-04-01T10:51:38.663Z,21.70
2024-04-01T10:54:08.271Z,21.70
2024-04-01T10:57:09.949Z,21.60
2024-04-01T11:00:12.923Z,21.60
2024-04-01T11:03:19.782Z,21.68
2024-04-01T11:06:28.773Z,21.70
2024-04-01T11:09:30.286Z,21.80
2024-04-01T11:12:51.320Z,21.60
2024-04-01T11:15:20.392Z,21.64
2024-04-01T11:17:52.391Z,21.50
2024-04-01T11:20:59.058Z,21.42
2024-04-01T11:23:41.978Z,21.40
2024-04-01T11:26:49.983Z,21.40
2024-04-01T11:29:39.489Z,21.40
2024-04-01T11:32:22.719Z,21.50
2024-04-01T11:35:04.581Z,21.50
2024-04-01T11:37:55.568Z,21.50
2024-04-01T11:40:30.820Z,21.50
2024-04-01T11:43:10.989Z,21.40
2024-04-01T11:45:45.786Z,21.30
2024-04-01T11:48:20.103Z,21.30
2024-04-01T11:51:00.884Z,21.30
2024-04-01T11:53:39.502Z,21.40
2024-04-01T11:56:07.790Z,21.50
2024-04-01T11:58:35.692Z,21.60
2024-04-01T12:01:03.712Z,21.60
2024-04-01T12:03:40.909Z,21.50
2024-04-01T12:06:15.826Z,21.50
2024-04-01T12:08:44.774Z,21.46
2024-04-01T12:11:12.695Z,21.50
2024-04-01T12:13:41.841Z,21.50
2024-04-01T12:16:14.153Z,21.50
2024-04-01T12:18:46.319Z,21.50
2024-04-01T12:21:19.352Z,21.50
2024-04-01T12:23:50.953Z,21.48
2024-04-01T12:26:19.776Z,21.44
2024-04-01T12:28:48.264Z,21.40
2024-04-01T12:31:19.118Z,21.30
2024-04-01T12:33:50.688Z,21.20
2024-04-01T12:36:19.881Z,21.20
2024-04-01T12:38:47.823Z,21.10
2024-04-01T12:41:23.473Z,21.12
2024-04-01T12:43:56.346Z,21.10
2024-04-01T12:46:26.366Z,21.10
2024-04-01T12:48:58.315Z,21.10
2024-04-01T12:51:29.270Z,21.10
2024-04-01T12:54:33.458Z,21.10
2024-04-01T12:57:20.090Z,21.10
2024-04-01T13:00:05.324Z,21.10
2024-04-01T13:03:04.832Z,21.10
2024-04-01T13:05:45.133Z,21.10
2024-04-01T13:08:46.282Z,21.10
2024-04-01T13:11:27.697Z,21.10
2024-04-01T13:14:38.938Z,21.20
2024-04-01T13:17:14.963Z,21.20
2024-04-01T13:19:53.446Z,21.20
2024-04-01T13:22:42.699Z,21.22
2024-04-01T13:25:25.609Z,21.20
2024-04-01T13:28:05.284Z,21.20
2024-04-01T13:31:32.338Z,21.20
2024-04-01T13:34:30.603Z,21.16
2024-04-01T13:37:32.595Z,21.10
2024-04-01T13:40:27.257Z,21.20
2024-04-01T13:43:19.017Z,21.18
2024-04-01T13:46:32.533Z,21.10
2024-04-01T13:49:12.483Z,21.10
2024-04-01T13:52:16.408Z,21.00
2024-04-01T13:54:44.662Z,21.00
2024-04-01T13:57:46.097Z,21.00
2024-04-01T14:00:27.246Z,21.00
2024-04-01T14:03:16.256Z,20.90
2024-04-01T14:06:15.058Z,20.88
2024-04-01T14:09:14.166Z,20.80
2024-04-01T14:12:11.114Z,20.80
2024-04-01T14:15:18.187Z,20.72
2024-04-01T14:17:54.584Z,20.72
2024-04-01T14:20:27.727Z,20.80
2024-04-01T14:22:55.814Z,20.80
2024-04-01T14:25:23.788Z,20.80
2024-04-01T14:27:54.345Z,20.80
2024-04-01T14:30:22.315Z,20.82
2024-04-01T14:32:50.587Z,20.90
2024-04-01T14:35:18.843Z,20.90
2024-04-01T14:37:46.696Z,20.90
2024-04-01T14:40:14.793Z,20.90
2024-04-01T14:42:42.777Z,20.90
2024-04-01T14:45:11.086Z,20.80
2024-04-01T14:47:39.646Z,20.80
2024-04-01T14:50:07.579Z,20.80
2024-04-01T14:52:35.803Z,20.70
2024-04-01T14:55:04.098Z,20.70
2024-04-01T14:57:34.355Z,20.70
2024-04-01T15:00:05.322Z,20.70
2024-04-01T15:02:33.779Z,20.80
2024-04-01T15:05:01.766Z,20.80
2024-04-01T15:07:36.898Z,20.80
2024-04-01T15:10:06.035Z,20.80
2024-04-01T15:12:36.600Z,20.80
2024-04-01T15:15:07.579Z,20.80
2024-04-01T15:17:35.913Z,20.80
2024-04-01T15:20:07.655Z,20.70
2024-04-01T15:22:36.425Z,20.64
2024-04-01T15:25:05.381Z,20.60
2024-04-01T15:27:35.735Z,20.60
2024-04-01T15:30:05.209Z,20.54
2024-04-01T15:32:34.673Z,20.50
2024-04-01T15:35:03.086Z,20.50
2024-04-01T15:37:34.350Z,20.50
2024-04-01T15:40:06.508Z,20.50
2024-04-01T15:42:34.489Z,20.50
2024-04-01T15:45:07.332Z,20.50
2024-04-01T15:47:37.101Z,20.40
2024-04-01T15:50:06.562Z,20.30
2024-04-01T15:52:34.573Z,20.30
2024-04-01T15:55:04.094Z,20.20
2024-04-01T15:57:33.045Z,20.20
2024-04-01T16:00:01.992Z,20.10
2024-04-01T16:02:43.029Z,20.10
2024-04-01T16:05:16.081Z,20.00
2024-04-01T16:07:44.203Z,19.80
2024-04-01T16:10:12.522Z,19.62
2024-04-01T16:12:40.545Z,19.50
2024-04-01T16:15:08.710Z,19.30
2024-04-01T16:17:41.325Z,19.20
2024-04-01T16:20:14.695Z,19.10
2024-04-01T16:22:42.985Z,19.00
2024-04-01T16:25:13.877Z,18.92
2024-04-01T16:27:52.838Z,18.90
2024-04-01T16:30:29.797Z,18.80
2024-04-01T16:32:58.383Z,18.80
2024-04-01T16:35:26.231Z,18.80
2024-04-01T16:37:55.077Z,18.70
2024-04-01T16:40:23.532Z,18.70
2024-04-01T16:42:51.560Z,18.60
2024-04-01T16:45:19.402Z,18.50
2024-04-01T16:47:53.260Z,18.50
2024-04-01T16:50:21.484Z,18.42
2024-04-01T16:52:49.724Z,18.30
2024-04-01T16:55:18.704Z,18.20
2024-04-01T16:57:48.736Z,18.02
2024-04-01T17:00:17.218Z,17.90
2024-04-01T17:02:46.640Z,17.80
2024-04-01T17:05:14.804Z,17.70
2024-04-01T17:07:43.024Z,17.60
2024-04-01T17:10:12.939Z,17.50
2024-04-01T17:12:43.000Z,17.40
2024-04-01T17:15:15.097Z,17.38
2024-04-01T17:17:43.455Z,17.30
2024-04-01T17:20:12.137Z,17.20
2024-04-01T17:22:41.169Z,17.12
2024-04-01T17:25:12.214Z,17.10
2024-04-01T17:27:40.329Z,17.00
2024-04-01T17:30:09.761Z,17.00
2024-04-01T17:32:38.002Z,16.90
2024-04-01T17:35:07.878Z,16.80
2024-04-01T17:37:38.039Z,16.70
2024-04-01T17:40:07.147Z,16.60
2024-04-01T17:42:40.052Z,16.56
2024-04-01T17:45:12.106Z,16.48
2024-04-01T17:47:42.068Z,16.38
2024-04-01T17:50:11.340Z,16.30
2024-04-01T17:52:40.823Z,16.20
2024-04-01T17:55:08.814Z,16.10
2024-04-01T17:57:37.023Z,16.10
2024-04-01T18:00:05.467Z,16.00
2024-04-01T18:02:40.245Z,15.96
2024-04-01T18:05:08.661Z,15.90
2024-04-01T18:07:38.555Z,15.80
2024-04-01T18:10:07.147Z,15.80
2024-04-01T18:12:35.859Z,15.70
2024-04-01T18:15:04.616Z,15.70
2024-04-01T18:17:32.735Z,15.62
2024-04-01T18:20:00.981Z,15.60
2024-04-01T18:22:28.874Z,15.50
2024-04-01T18:24:57.790Z,15.50
2024-04-01T18:27:31.893Z,15.50
2024-04-01T18:30:01.424Z,15.50
2024-04-01T18:32:29.735Z,15.40
2024-04-01T18:34:58.563Z,15.40
2024-04-01T18:37:28.165Z,15.40
2024-04-01T18:39:56.432Z,15.40
2024-04-01T18:42:24.477Z,15.40
2024-04-01T18:44:52.284Z,15.40
2024-04-01T18:47:20.093Z,15.34
2024-04-01T18:49:47.884Z,15.30
2024-04-01T18:52:29.808Z,15.30
2024-04-01T18:55:06.666Z,15.30
2024-04-01T18:57:41.453Z,15.30
2024-04-01T19:00:11.063Z,15.22
2024-04-01T19:02:38.837Z,15.20
2024-04-01T19:05:07.010Z,15.20
2024-04-01T19:07:38.631Z,15.10
2024-04-01T19:10:09.172Z,15.10
2024-04-01T19:12:36.934Z,15.10
2024-04-01T19:15:05.194Z,15.00
2024-04-01T19:17:33.950Z,15.00
2024-04-01T19:20:01.841Z,15.00
2024-04-01T19:22:29.822Z,14.90
2024-04-01T19:24:57.652Z,14.86
2024-04-01T19:27:25.536Z,14.80
2024-04-01T19:29:53.591Z,14.80
2024-04-01T19:32:22.717Z,14.78
2024-04-01T19:34:50.604Z,14.70
2024-04-01T19:37:19.878Z,14.70
2024-04-01T19:39:48.783Z,14.70
2024-04-01T19:42:18.267Z,14.70
2024-04-01T19:44:46.270Z,14.70
2024-04-01T19:47:14.062Z,14.70
2024-04-01T19:49:42.232Z,14.70
2024-04-01T19:52:22.918Z,14.70
2024-04-01T19:54:50.815Z,14.70
2024-04-01T19:57:18.515Z,14.70
2024-04-01T19:59:46.542Z,14.70
2024-04-01T20:02:41.230Z,14.70
2024-04-01T20:05:09.628Z,14.62
2024-04-01T20:07:37.767Z,14.64
2024-04-01T20:10:32.888Z,14.60
2024-04-01T20:13:02.208Z,14.62
2024-04-01T20:15:31.176Z,14.60
2024-04-01T20:17:59.069Z,14.60
2024-04-01T20:20:26.861Z,14.60
2024-04-01T20:23:00.830Z,14.60
2024-04-01T20:25:28.889Z,14.60
2024-04-01T20:27:56.738Z,14.60
2024-04-01T20:30:33.277Z,14.60
2024-04-01T20:33:07.262Z,14.56
2024-04-01T20:35:36.480Z,14.50
2024-04-01T20:38:05.034Z,14.50
2024-04-01T20:40:34.255Z,14.42
2024-04-01T20:43:04.327Z,14.40
2024-04-01T20:45:32.728Z,14.32
2024-04-01T20:48:00.595Z,14.30
2024-04-01T20:50:28.678Z,14.20
2024-04-01T20:53:27.439Z,14.20
2024-04-01T20:55:51.592Z,14.10
2024-04-01T20:58:25.862Z,14.00
2024-04-01T21:00:53.773Z,14.00
2024-04-01T21:03:36.746Z,13.90
2024-04-01T21:06:19.575Z,13.90
2024-04-01T21:08:49.697Z,13.90
2024-04-01T21:11:18.776Z,13.80
2024-04-01T21:13:46.747Z,13.80
2024-04-01T21:16:14.394Z,13.80
2024-04-01T21:18:42.479Z,13.74
2024-04-01T21:21:11.672Z,13.70
2024-04-01T21:23:39.380Z,13.70
2024-04-01T21:26:07.484Z,13.60
2024-04-01T21:28:35.357Z,13.60
2024-04-01T21:31:03.463Z,13.60
2024-04-01T21:33:31.356Z,13.60
2024-04-01T21:35:59.118Z,13.50
2024-04-01T21:38:27.886Z,13.50
2024-04-01T21:40:55.771Z,13.50
2024-04-01T21:43:24.440Z,13.50
2024-04-01T21:45:52.208Z,13.50
2024-04-01T21:48:19.985Z,13.40
2024-04-01T21:50:47.730Z,13.40
2024-04-01T21:53:15.451Z,13.40
2024-04-01T21:55:43.108Z,13.40
2024-04-01T21:58:10.825Z,13.40
2024-04-01T22:00:40.831Z,13.30
2024-04-01T22:03:08.508Z,13.30
2024-04-01T22:05:36.235Z,13.30
2024-04-01T22:08:04.376Z,13.30
2024-04-01T22:10:32.364Z,13.30
2024-04-01T22:13:00.036Z,13.26
2024-04-01T22:15:27.775Z,13.20
2024-04-01T22:17:55.602Z,13.20
2024-04-01T22:20:23.247Z,13.20
2024-04-01T22:22:51.130Z,13.10
2024-04-01T22:25:18.969Z,13.10
2024-04-01T22:27:46.678Z,13.10
2024-04-01T22:30:14.400Z,13.10
2024-04-01T22:32:42.194Z,13.02
2024-04-01T22:35:09.851Z,13.00
2024-04-01T22:37:37.571Z,13.00
2024-04-01T22:40:06.714Z,13.00
2024-04-01T22:42:34.554Z,13.00
2024-04-01T22:45:02.640Z,13.00
2024-04-01T22:47:30.706Z,12.92
2024-04-01T22:49:58.369Z,12.90
2024-04-01T22:52:26.055Z,12.90
2024-04-01T22:54:53.709Z,12.90
2024-04-01T22:57:21.444Z,12.86
2024-04-01T22:59:49.234Z,12.80
2024-04-01T23:02:16.992Z,12.80
2024-04-01T23:04:44.655Z,12.80
2024-04-01T23:07:12.333Z,12.80
2024-04-01T23:09:40.129Z,12.80
2024-04-01T23:12:08.318Z,12.80
2024-04-01T23:14:43.922Z,12.80
2024-04-01T23:17:14.236Z,12.80
2024-04-01T23:19:41.907Z,12.80
2024-04-01T23:22:09.726Z,12.80
2024-04-01T23:24:40.747Z,12.80
2024-04-01T23:27:08.606Z,12.80
2024-04-01T23:29:36.423Z,12.78
2024-04-01T23:32:05.135Z,12.72
2024-04-01T23:34:32.906Z,12.70
2024-04-01T23:37:00.736Z,12.70
2024-04-01T23:39:31.437Z,12.70
2024-04-01T23:41:59.118Z,12.70
2024-04-01T23:44:26.898Z,12.70
2024-04-01T23:46:54.546Z,12.66
2024-04-01T23:49:22.390Z,12.62
2024-04-01T23:51:50.242Z,12.60
2024-04-01T23:54:18.030Z,12.60
2024-04-01T23:56:45.793Z,12.60
2024-04-01T23:59:14.347Z,12.60
